Time;durP1;ratioP1;P1;durP2;ratioP2;P2;SDS_P1;SDS_P2;PMS_P1;PMS_P2;Temp;Humidity;BMP_temperature;BMP_pressure;BME280_temperature;BME280_humidity;BME280_pressure;Samples;Min_cycle;Max_cycle;Signal;HPM_P1;HPM_P2
2023/05/23 00:00:32;;;;;;;5.45;4.07;;;;;;;;;;2023705;29;20088;-89
2023/05/23 00:01:36;;;;;;;5.22;4.13;;;;;;;;;;2023816;29;20188;-89
2023/05/23 00:02:36;;;;;;;6.03;4.38;;;;;;;;;;2024263;29;20215;-89
2023/05/23 00:03:37;;;;;;;7.05;4.35;;;;;;;;;;2024102;29;20072;-88
2023/05/23 00:04:37;;;;;;;7.07;4.53;;;;;;;;;;2032601;29;20028;-88
2023/05/23 00:05:37;;;;;;;7.20;4.65;;;;;;;;;;2023875;29;20033;-88
2023/05/23 00:06:38;;;;;;;5.47;4.35;;;;;;;;;;2024312;29;20520;-88
2023/05/23 00:07:38;;;;;;;7.43;4.15;;;;;;;;;;2024051;29;20195;-89
2023/05/23 00:08:39;;;;;;;5.78;4.78;;;;;;;;;;2016210;29;20096;-90
2023/05/23 00:09:39;;;;;;;6.13;4.65;;;;;;;;;;2023963;29;20033;-89
2023/05/23 00:10:41;;;;;;;5.68;4.63;;;;;;;;;;2023954;29;20029;-89
2023/05/23 00:11:44;;;;;;;5.88;3.83;;;;;;;;;;2024294;29;20032;-88
2023/05/23 00:12:46;;;;;;;6.18;4.22;;;;;;;;;;2023882;29;20047;-89
2023/05/23 00:13:47;;;;;;;5.72;4.28;;;;;;;;;;2024449;29;20088;-90
2023/05/23 00:14:48;;;;;;;7.03;4.45;;;;;;;;;;2032393;29;20027;-90
2023/05/23 00:15:48;;;;;;;6.22;4.57;;;;;;;;;;2024023;29;20115;-89
2023/05/23 00:16:49;;;;;;;4.97;4.28;;;;;;;;;;2016763;29;20061;-89
2023/05/23 00:17:50;;;;;;;6.75;4.40;;;;;;;;;;2024314;29;20028;-89
2023/05/23 00:18:50;;;;;;;6.65;4.53;;;;;;;;;;2023766;29;20112;-89
2023/05/23 00:19:51;;;;;;;5.95;4.60;;;;;;;;;;2032164;29;20032;-89
2023/05/23 00:20:52;;;;;;;7.18;5.10;;;;;;;;;;2032450;29;20047;-89
2023/05/23 00:21:55;;;;;;;8.68;4.72;;;;;;;;;;2032681;29;20083;-89
2023/05/23 00:22:57;;;;;;;6.68;4.50;;;;;;;;;;2032756;29;20028;-90
2023/05/23 00:23:58;;;;;;;9.15;5.50;;;;;;;;;;2024417;29;20032;-89
2023/05/23 00:25:00;;;;;;;7.40;5.45;;;;;;;;;;2024464;29;20067;-89
2023/05/23 00:26:01;;;;;;;8.23;5.57;;;;;;;;;;2024430;29;20060;-87
2023/05/23 00:27:02;;;;;;;6.93;5.10;;;;;;;;;;2024452;29;20142;-89
2023/05/23 00:28:03;;;;;;;6.50;5.45;;;;;;;;;;2024314;29;20488;-89
2023/05/23 00:29:04;;;;;;;7.75;5.22;;;;;;;;;;2016491;29;20029;-90
2023/05/23 00:30:05;;;;;;;10.02;5.80;;;;;;;;;;2016636;29;20323;-89
2023/05/23 00:31:06;;;;;;;6.82;5.18;;;;;;;;;;2024251;29;20024;-89
2023/05/23 00:32:07;;;;;;;7.25;5.05;;;;;;;;;;2032902;29;20453;-88
2023/05/23 00:33:08;;;;;;;6.90;5.00;;;;;;;;;;2024733;29;20028;-89
2023/05/23 00:34:09;;;;;;;6.00;5.25;;;;;;;;;;2024548;29;20152;-89
2023/05/23 00:35:09;;;;;;;6.50;4.95;;;;;;;;;;2024788;29;20035;-89
2023/05/23 00:36:10;;;;;;;7.72;5.35;;;;;;;;;;2024130;29;20072;-89
2023/05/23 00:37:10;;;;;;;7.90;4.95;;;;;;;;;;2024251;29;20100;-89
2023/05/23 00:38:11;;;;;;;8.43;5.50;;;;;;;;;;2016630;29;20048;-89
2023/05/23 00:39:21;;;;;;;10.35;5.30;;;;;;;;;;2024559;29;20058;-88
2023/05/23 00:40:22;;;;;;;6.18;4.97;;;;;;;;;;2024384;29;20050;-88
2023/05/23 00:41:25;;;;;;;7.50;4.95;;;;;;;;;;2023709;29;20460;-88
2023/05/23 00:42:26;;;;;;;7.07;4.43;;;;;;;;;;2023909;29;20028;-90
2023/05/23 00:43:28;;;;;;;6.97;4.88;;;;;;;;;;2016267;29;20037;-91
2023/05/23 00:44:29;;;;;;;7.43;4.65;;;;;;;;;;2031840;29;20020;-90
2023/05/23 00:45:30;;;;;;;7.90;4.57;;;;;;;;;;2039655;29;20038;-90
2023/05/23 00:46:31;;;;;;;5.05;4.32;;;;;;;;;;2032594;29;20028;-89
2023/05/23 00:47:31;;;;;;;7.00;4.53;;;;;;;;;;2033250;29;20135;-89
2023/05/23 00:48:32;;;;;;;7.10;4.65;;;;;;;;;;2033015;29;20519;-89
2023/05/23 00:49:33;;;;;;;5.70;4.95;;;;;;;;;;2024714;29;20120;-90
2023/05/23 00:50:35;;;;;;;6.63;4.20;;;;;;;;;;2026870;29;20039;-90
2023/05/23 00:51:35;;;;;;;7.20;4.40;;;;;;;;;;2034151;29;20024;-87
2023/05/23 00:52:36;;;;;;;4.93;4.00;;;;;;;;;;2035042;29;20582;-88
2023/05/23 00:53:36;;;;;;;5.88;4.60;;;;;;;;;;2032727;29;20494;-89
2023/05/23 00:54:41;;;;;;;5.38;4.43;;;;;;;;;;2032746;29;20461;-90
2023/05/23 00:55:43;;;;;;;7.35;4.18;;;;;;;;;;2032863;29;20028;-89
2023/05/23 00:56:44;;;;;;;5.18;4.68;;;;;;;;;;2032768;29;20028;-89
2023/05/23 00:57:46;;;;;;;12.77;4.50;;;;;;;;;;2024176;29;20087;-90
2023/05/23 00:58:48;;;;;;;6.25;4.63;;;;;;;;;;2016889;29;20066;-90
2023/05/23 00:59:50;;;;;;;6.90;4.75;;;;;;;;;;2024517;29;20361;-90
2023/05/23 01:00:53;;;;;;;8.23;4.10;;;;;;;;;;2024475;29;20501;-90
2023/05/23 01:01:59;;;;;;;5.68;4.47;;;;;;;;;;2024494;29;20029;-90
2023/05/23 01:03:00;;;;;;;6.03;4.80;;;;;;;;;;2017220;29;20120;-89
2023/05/23 01:04:01;;;;;;;5.10;4.50;;;;;;;;;;1680187;29;10186687;-89
2023/05/23 01:05:02;;;;;;;4.90;4.40;;;;;;;;;;2032980;29;20024;-89
2023/05/23 01:06:02;;;;;;;5.03;4.13;;;;;;;;;;2032897;29;20462;-88
2023/05/23 01:07:04;;;;;;;4.55;4.03;;;;;;;;;;2032586;29;20381;-88
2023/05/23 01:08:05;;;;;;;5.63;4.57;;;;;;;;;;2024142;29;20028;-88
2023/05/23 01:09:08;;;;;;;6.32;4.10;;;;;;;;;;2025078;29;20029;-89
2023/05/23 01:10:10;;;;;;;6.03;4.55;;;;;;;;;;2033867;29;20481;-88
2023/05/23 01:11:31;;;;;;;5.53;4.28;;;;;;;;;;2024257;29;20148;-89
2023/05/23 01:12:45;;;;;;;5.70;4.45;;;;;;;;;;2027225;29;20060;-89
2023/05/23 01:14:01;;;;;;;5.60;4.07;;;;;;;;;;2024435;29;20508;-89
2023/05/23 01:15:07;;;;;;;5.65;4.22;;;;;;;;;;2029022;29;20032;-89
2023/05/23 01:16:17;;;;;;;7.57;4.47;;;;;;;;;;2032877;29;20033;-89
2023/05/23 01:17:28;;;;;;;7.05;4.60;;;;;;;;;;1672203;29;10420009;-89
2023/05/23 01:18:32;;;;;;;4.80;4.22;;;;;;;;;;2017711;29;20036;-88
2023/05/23 01:19:50;;;;;;;5.50;4.50;;;;;;;;;;2016942;29;20489;-89
2023/05/23 01:21:05;;;;;;;7.53;4.40;;;;;;;;;;2018765;29;20390;-88
2023/05/23 01:22:15;;;;;;;5.15;4.03;;;;;;;;;;2024249;29;20024;-89
2023/05/23 01:23:30;;;;;;;5.82;4.05;;;;;;;;;;2017851;29;20108;-90
2023/05/23 01:25:06;;;;;;;6.15;4.03;;;;;;;;;;2025967;29;20056;-90
2023/05/23 01:26:44;;;;;;;4.88;4.15;;;;;;;;;;2006258;29;20022;-90
2023/05/23 01:27:51;;;;;;;5.90;4.47;;;;;;;;;;2029103;29;20047;-89
2023/05/23 01:28:57;;;;;;;5.93;4.20;;;;;;;;;;2032509;29;20343;-91
2023/05/23 01:30:00;;;;;;;5.38;4.03;;;;;;;;;;2024054;29;20536;-89
2023/05/23 01:31:03;;;;;;;4.95;3.78;;;;;;;;;;2023607;29;20029;-91
2023/05/23 01:32:10;;;;;;;4.95;4.10;;;;;;;;;;2032661;29;20528;-90
2023/05/23 01:33:14;;;;;;;5.07;3.95;;;;;;;;;;2032564;29;20091;-89
2023/05/23 01:34:17;;;;;;;6.57;4.43;;;;;;;;;;2032531;29;20247;-89
2023/05/23 01:35:25;;;;;;;5.03;3.75;;;;;;;;;;2024285;29;20024;-90
2023/05/23 01:36:25;;;;;;;7.75;4.50;;;;;;;;;;2025330;29;20025;-89
2023/05/23 01:37:28;;;;;;;5.30;4.18;;;;;;;;;;2024452;29;20028;-89
2023/05/23 01:38:29;;;;;;;6.40;4.13;;;;;;;;;;2024531;29;20068;-91
2023/05/23 01:39:29;;;;;;;5.68;3.88;;;;;;;;;;2032302;29;20603;-89
2023/05/23 01:40:30;;;;;;;6.32;3.67;;;;;;;;;;2023839;29;20020;-89
2023/05/23 01:41:30;;;;;;;5.00;3.95;;;;;;;;;;2023727;29;20120;-88
2023/05/23 01:42:31;;;;;;;7.28;4.15;;;;;;;;;;2023742;29;20457;-89
2023/05/23 01:43:31;;;;;;;4.65;3.80;;;;;;;;;;2015729;29;20029;-89
2023/05/23 01:44:34;;;;;;;6.32;4.45;;;;;;;;;;2023601;29;20057;-89
2023/05/23 01:45:34;;;;;;;4.85;3.45;;;;;;;;;;2023610;29;20436;-89
2023/05/23 01:46:38;;;;;;;6.55;4.20;;;;;;;;;;2023896;29;20287;-89
2023/05/23 01:47:40;;;;;;;7.45;3.90;;;;;;;;;;2023428;29;20237;-89
2023/05/23 01:48:41;;;;;;;7.07;4.00;;;;;;;;;;2016132;29;20067;-89
2023/05/23 01:49:43;;;;;;;5.82;4.22;;;;;;;;;;2023630;29;20025;-89
2023/05/23 01:50:45;;;;;;;8.20;4.50;;;;;;;;;;2023979;29;20131;-89
2023/05/23 01:51:45;;;;;;;5.63;3.80;;;;;;;;;;2023174;29;20032;-88
2023/05/23 01:52:46;;;;;;;4.97;3.45;;;;;;;;;;2023621;29;20025;-89
2023/05/23 01:53:48;;;;;;;5.30;3.95;;;;;;;;;;2016008;29;20025;-89
2023/05/23 01:54:50;;;;;;;4.75;3.85;;;;;;;;;;2016164;29;20124;-89
2023/05/23 01:55:51;;;;;;;4.88;3.95;;;;;;;;;;2016159;29;20033;-90
2023/05/23 01:56:53;;;;;;;6.03;3.67;;;;;;;;;;2016115;29;20021;-89
2023/05/23 01:57:55;;;;;;;5.03;4.10;;;;;;;;;;2023962;29;20037;-88
2023/05/23 01:58:56;;;;;;;6.13;4.32;;;;;;;;;;2025660;29;20032;-90
2023/05/23 01:59:57;;;;;;;6.10;3.95;;;;;;;;;;2033172;29;20009;-87
2023/05/23 02:00:58;;;;;;;5.00;4.10;;;;;;;;;;2042071;29;20063;-88
2023/05/23 02:01:58;;;;;;;5.35;3.92;;;;;;;;;;2033658;29;20028;-88
2023/05/23 02:02:59;;;;;;;4.95;3.72;;;;;;;;;;2033296;29;20158;-89
2023/05/23 02:03:59;;;;;;;5.10;4.05;;;;;;;;;;2032892;29;20129;-87
2023/05/23 02:05:00;;;;;;;5.38;3.78;;;;;;;;;;2035644;29;20162;-88
2023/05/23 02:06:02;;;;;;;6.75;3.80;;;;;;;;;;2034660;29;20350;-89
2023/05/23 02:07:02;;;;;;;6.80;4.25;;;;;;;;;;2028648;29;20126;-88
2023/05/23 02:08:03;;;;;;;5.57;3.97;;;;;;;;;;2027342;29;20419;-88
2023/05/23 02:09:03;;;;;;;4.88;3.95;;;;;;;;;;2035400;29;20055;-89
2023/05/23 02:10:06;;;;;;;4.90;3.53;;;;;;;;;;2027391;29;20036;-88
2023/05/23 02:11:07;;;;;;;7.15;4.10;;;;;;;;;;2028841;29;20028;-88
2023/05/23 02:12:08;;;;;;;4.78;4.00;;;;;;;;;;2027962;29;20115;-88
2023/05/23 02:13:09;;;;;;;6.97;4.03;;;;;;;;;;2028242;29;20481;-86
2023/05/23 02:14:10;;;;;;;5.47;3.85;;;;;;;;;;2026925;29;20039;-87
2023/05/23 02:15:11;;;;;;;6.85;4.20;;;;;;;;;;2027208;29;20021;-87
2023/05/23 02:16:12;;;;;;;6.25;3.92;;;;;;;;;;2024390;29;20139;-89
2023/05/23 02:17:15;;;;;;;6.57;4.35;;;;;;;;;;2016234;29;20020;-89
2023/05/23 02:18:16;;;;;;;6.72;4.35;;;;;;;;;;2023416;29;20032;-90
2023/05/23 02:19:17;;;;;;;4.95;3.90;;;;;;;;;;2032963;29;20048;-89
2023/05/23 02:20:17;;;;;;;5.85;3.80;;;;;;;;;;2048968;29;20027;-89
2023/05/23 02:21:18;;;;;;;4.50;3.78;;;;;;;;;;2048920;28;20031;-89
2023/05/23 02:22:23;;;;;;;4.38;3.75;;;;;;;;;;1692556;29;10248278;-89
2023/05/23 02:23:23;;;;;;;5.22;3.63;;;;;;;;;;2040378;29;20036;-89
2023/05/23 02:24:24;;;;;;;7.63;4.20;;;;;;;;;;2025325;29;20060;-89
2023/05/23 02:25:24;;;;;;;5.68;3.90;;;;;;;;;;2034219;29;20439;-89
2023/05/23 02:26:26;;;;;;;5.22;4.20;;;;;;;;;;2041037;29;20036;-88
2023/05/23 02:27:27;;;;;;;5.18;3.95;;;;;;;;;;2035656;29;20100;-90
2023/05/23 02:28:27;;;;;;;7.82;4.22;;;;;;;;;;2027252;29;20035;-88
2023/05/23 02:29:28;;;;;;;6.93;4.03;;;;;;;;;;2026903;29;20037;-89
2023/05/23 02:30:28;;;;;;;7.40;4.13;;;;;;;;;;2035531;29;20035;-89
2023/05/23 02:31:29;;;;;;;5.10;3.70;;;;;;;;;;2033852;29;20036;-89
2023/05/23 02:32:31;;;;;;;5.88;3.88;;;;;;;;;;2032750;29;20115;-89
2023/05/23 02:33:31;;;;;;;6.80;4.40;;;;;;;;;;2032428;29;20549;-89
2023/05/23 02:34:31;;;;;;;5.32;3.72;;;;;;;;;;2023799;29;20033;-88
2023/05/23 02:35:32;;;;;;;4.68;4.18;;;;;;;;;;2025234;29;20024;-88
2023/05/23 02:36:35;;;;;;;5.40;3.90;;;;;;;;;;2016113;29;20024;-89
2023/05/23 02:37:36;;;;;;;6.03;3.83;;;;;;;;;;2024212;29;20051;-88
2023/05/23 02:38:37;;;;;;;4.70;4.10;;;;;;;;;;2032617;29;20104;-90
2023/05/23 02:39:37;;;;;;;5.20;4.00;;;;;;;;;;2032368;29;20050;-89
2023/05/23 02:40:40;;;;;;;5.25;4.10;;;;;;;;;;2032207;29;20549;-90
2023/05/23 02:41:40;;;;;;;5.82;4.60;;;;;;;;;;2026427;29;20024;-87
2023/05/23 02:42:41;;;;;;;4.82;3.88;;;;;;;;;;2027873;29;20056;-88
2023/05/23 02:43:41;;;;;;;4.90;3.78;;;;;;;;;;2028555;29;20048;-88
2023/05/23 02:44:43;;;;;;;6.65;3.72;;;;;;;;;;2025592;29;20108;-88
2023/05/23 02:45:43;;;;;;;5.25;4.28;;;;;;;;;;2025197;29;20104;-88
2023/05/23 02:46:44;;;;;;;6.38;3.92;;;;;;;;;;2017719;29;20029;-89
2023/05/23 02:47:44;;;;;;;5.70;4.43;;;;;;;;;;2025556;29;20039;-89
2023/05/23 02:48:45;;;;;;;5.50;3.85;;;;;;;;;;2033857;29;20034;-89
2023/05/23 02:49:46;;;;;;;6.72;4.28;;;;;;;;;;1700040;29;10312969;-89
2023/05/23 02:50:46;;;;;;;6.32;3.85;;;;;;;;;;2025577;29;20297;-89
2023/05/23 02:51:47;;;;;;;4.72;3.50;;;;;;;;;;2025193;29;20119;-89
2023/05/23 02:52:47;;;;;;;4.70;3.50;;;;;;;;;;2025284;29;20024;-88
2023/05/23 02:53:47;;;;;;;5.20;3.50;;;;;;;;;;2027552;29;20029;-87
2023/05/23 02:54:48;;;;;;;5.18;4.03;;;;;;;;;;2025376;29;20096;-89
2023/05/23 02:55:51;;;;;;;6.03;4.03;;;;;;;;;;2033789;29;20028;-89
2023/05/23 02:56:53;;;;;;;6.50;3.97;;;;;;;;;;2024909;29;20036;-89
2023/05/23 02:57:54;;;;;;;5.55;3.80;;;;;;;;;;2017539;29;20033;-88
2023/05/23 02:58:54;;;;;;;6.60;4.00;;;;;;;;;;2017166;29;20601;-88
2023/05/23 02:59:55;;;;;;;5.93;4.25;;;;;;;;;;2025178;29;20357;-89
2023/05/23 03:00:56;;;;;;;5.75;4.05;;;;;;;;;;2033533;29;20149;-88
2023/05/23 03:01:58;;;;;;;5.95;4.47;;;;;;;;;;2024593;29;20119;-89
2023/05/23 03:02:58;;;;;;;5.10;3.60;;;;;;;;;;2024944;29;20077;-89
2023/05/23 03:03:58;;;;;;;6.82;3.67;;;;;;;;;;2025030;29;20025;-89
2023/05/23 03:04:59;;;;;;;8.18;4.88;;;;;;;;;;2033049;29;20032;-89
2023/05/23 03:06:02;;;;;;;4.47;3.70;;;;;;;;;;2033332;29;20032;-89
2023/05/23 03:07:02;;;;;;;5.72;3.70;;;;;;;;;;2024582;29;20092;-88
2023/05/23 03:08:05;;;;;;;4.32;3.65;;;;;;;;;;2024881;29;20058;-88
2023/05/23 03:09:06;;;;;;;5.80;3.75;;;;;;;;;;2025353;29;20036;-89
2023/05/23 03:10:07;;;;;;;6.43;4.10;;;;;;;;;;2017417;29;20036;-88
2023/05/23 03:11:08;;;;;;;4.43;3.10;;;;;;;;;;2024851;29;20213;-88
2023/05/23 03:12:08;;;;;;;4.90;3.47;;;;;;;;;;2033370;29;20043;-89
2023/05/23 03:13:09;;;;;;;5.72;3.97;;;;;;;;;;2033107;29;20034;-89
2023/05/23 03:14:10;;;;;;;4.15;3.72;;;;;;;;;;2024715;29;20394;-89
2023/05/23 03:15:10;;;;;;;4.40;3.53;;;;;;;;;;2024727;29;20028;-89
2023/05/23 03:16:11;;;;;;;4.70;3.75;;;;;;;;;;2024689;29;20080;-88
2023/05/23 03:17:12;;;;;;;5.07;4.00;;;;;;;;;;2025020;29;20044;-88
2023/05/23 03:18:13;;;;;;;4.82;3.70;;;;;;;;;;2025151;29;20207;-88
2023/05/23 03:19:13;;;;;;;4.10;3.53;;;;;;;;;;2033491;29;20457;-88
2023/05/23 03:20:14;;;;;;;5.47;3.00;;;;;;;;;;2033389;29;20031;-89
2023/05/23 03:21:15;;;;;;;4.15;3.55;;;;;;;;;;2033003;29;20137;-88
2023/05/23 03:22:15;;;;;;;4.97;3.75;;;;;;;;;;2016545;29;20036;-89
2023/05/23 03:23:16;;;;;;;5.47;3.40;;;;;;;;;;2016853;29;20101;-88
2023/05/23 03:24:17;;;;;;;6.60;3.20;;;;;;;;;;2024183;29;20351;-88
2023/05/23 03:25:17;;;;;;;4.22;3.10;;;;;;;;;;2024470;29;20165;-88
2023/05/23 03:26:18;;;;;;;4.95;3.63;;;;;;;;;;2032546;29;20577;-88
2023/05/23 03:27:18;;;;;;;6.38;3.67;;;;;;;;;;2024315;29;20025;-88
2023/05/23 03:28:21;;;;;;;5.28;3.30;;;;;;;;;;2024083;29;20132;-89
2023/05/23 03:29:21;;;;;;;4.90;2.83;;;;;;;;;;2024229;29;20111;-89
2023/05/23 03:30:22;;;;;;;4.22;3.50;;;;;;;;;;2024262;29;20460;-88
2023/05/23 03:31:22;;;;;;;4.47;3.53;;;;;;;;;;2032153;29;20062;-89
2023/05/23 03:32:29;;;;;;;4.49;3.28;;;;;;;;;;1209189;29;10001548;-89
2023/05/23 03:33:30;;;;;;;6.00;3.60;;;;;;;;;;2032164;29;20058;-88
2023/05/23 03:34:31;;;;;;;3.65;2.97;;;;;;;;;;2023095;29;20554;-88
2023/05/23 03:35:32;;;;;;;5.80;3.55;;;;;;;;;;2024621;29;20485;-88
2023/05/23 03:36:32;;;;;;;7.18;3.60;;;;;;;;;;2023810;29;20096;-89
2023/05/23 03:37:33;;;;;;;7.05;3.42;;;;;;;;;;2016465;29;20187;-89
2023/05/23 03:38:33;;;;;;;4.90;3.65;;;;;;;;;;2024299;29;20032;-89
2023/05/23 03:39:34;;;;;;;6.05;3.67;;;;;;;;;;2032511;29;20344;-88
2023/05/23 03:40:34;;;;;;;5.82;3.85;;;;;;;;;;2032676;29;20043;-88
2023/05/23 03:41:35;;;;;;;5.25;4.03;;;;;;;;;;2032632;29;20494;-88
2023/05/23 03:42:37;;;;;;;5.75;3.90;;;;;;;;;;2024306;29;20036;-88
2023/05/23 03:43:38;;;;;;;6.15;3.60;;;;;;;;;;2024448;29;20060;-88
2023/05/23 03:44:38;;;;;;;5.22;3.40;;;;;;;;;;2032613;29;20027;-88
2023/05/23 03:45:39;;;;;;;7.78;4.00;;;;;;;;;;2025455;29;20036;-87
2023/05/23 03:46:41;;;;;;;5.03;3.60;;;;;;;;;;2017542;29;20048;-87
2023/05/23 03:47:42;;;;;;;5.22;3.42;;;;;;;;;;2017087;29;20051;-88
2023/05/23 03:48:42;;;;;;;4.78;3.28;;;;;;;;;;2024657;29;20437;-88
2023/05/23 03:49:44;;;;;;;7.30;3.78;;;;;;;;;;2032749;29;20087;-88
2023/05/23 03:50:44;;;;;;;6.47;3.33;;;;;;;;;;2024092;29;20028;-88
2023/05/23 03:51:44;;;;;;;3.92;3.55;;;;;;;;;;2024437;29;20402;-89
2023/05/23 03:52:45;;;;;;;6.97;4.05;;;;;;;;;;2024142;29;20588;-88
2023/05/23 03:53:46;;;;;;;5.78;3.70;;;;;;;;;;2024127;29;20100;-87
2023/05/23 03:54:47;;;;;;;4.68;3.20;;;;;;;;;;2032522;29;20644;-89
2023/05/23 03:55:47;;;;;;;4.60;3.28;;;;;;;;;;1676984;29;10281967;-89
2023/05/23 03:56:47;;;;;;;4.35;2.97;;;;;;;;;;2024201;29;20104;-89
2023/05/23 03:57:50;;;;;;;6.05;2.90;;;;;;;;;;2032886;29;20036;-90
2023/05/23 03:58:50;;;;;;;5.70;3.33;;;;;;;;;;2032458;29;20099;-89
2023/05/23 03:59:50;;;;;;;3.78;3.20;;;;;;;;;;2032465;29;20106;-89
2023/05/23 04:00:51;;;;;;;5.90;3.13;;;;;;;;;;2032846;29;20032;-88
2023/05/23 04:01:52;;;;;;;5.57;3.42;;;;;;;;;;2032524;29;20568;-89
2023/05/23 04:02:56;;;;;;;4.55;3.20;;;;;;;;;;2032698;29;20083;-89
2023/05/23 04:03:56;;;;;;;4.50;3.10;;;;;;;;;;2032703;29;20411;-89
2023/05/23 04:04:57;;;;;;;4.05;3.30;;;;;;;;;;2024160;29;20033;-89
2023/05/23 04:05:59;;;;;;;4.45;3.20;;;;;;;;;;2015661;29;20037;-90
2023/05/23 04:07:00;;;;;;;4.30;3.30;;;;;;;;;;2024584;29;20028;-89
2023/05/23 04:08:00;;;;;;;6.00;3.53;;;;;;;;;;2032865;29;20061;-90
2023/05/23 04:09:02;;;;;;;4.22;3.03;;;;;;;;;;2024485;29;20020;-89
2023/05/23 04:10:03;;;;;;;3.50;3.00;;;;;;;;;;1680778;29;10168414;-89
2023/05/23 04:11:03;;;;;;;4.47;3.42;;;;;;;;;;2032697;29;20024;-90
2023/05/23 04:12:04;;;;;;;5.80;3.25;;;;;;;;;;2024251;29;20025;-90
2023/05/23 04:13:05;;;;;;;5.70;3.22;;;;;;;;;;2024075;29;20112;-89
2023/05/23 04:14:07;;;;;;;3.90;3.08;;;;;;;;;;2032476;29;20024;-89
2023/05/23 04:15:08;;;;;;;7.35;3.67;;;;;;;;;;2032598;29;20058;-89
2023/05/23 04:16:11;;;;;;;4.28;3.20;;;;;;;;;;2032540;29;20028;-90
2023/05/23 04:17:11;;;;;;;3.72;3.03;;;;;;;;;;2032669;29;20028;-89
2023/05/23 04:18:13;;;;;;;4.10;2.83;;;;;;;;;;2032947;29;20353;-89
2023/05/23 04:19:15;;;;;;;6.28;2.78;;;;;;;;;;2023907;29;20027;-89
2023/05/23 04:20:15;;;;;;;3.70;3.08;;;;;;;;;;2023990;29;20029;-89
2023/05/23 04:21:16;;;;;;;5.82;3.33;;;;;;;;;;2024040;29;20533;-89
2023/05/23 04:22:16;;;;;;;3.50;2.97;;;;;;;;;;2024370;29;20017;-89
2023/05/23 04:23:17;;;;;;;7.07;3.55;;;;;;;;;;2035269;29;20024;-90
2023/05/23 04:24:17;;;;;;;5.05;3.50;;;;;;;;;;2032952;29;20086;-90
2023/05/23 04:25:19;;;;;;;4.55;3.10;;;;;;;;;;2024529;29;20027;-88
2023/05/23 04:26:19;;;;;;;4.07;3.20;;;;;;;;;;2024460;29;20016;-88
2023/05/23 04:27:21;;;;;;;5.13;2.78;;;;;;;;;;2023993;29;20029;-91
2023/05/23 04:28:23;;;;;;;4.90;3.08;;;;;;;;;;2032984;29;20032;-90
2023/05/23 04:29:25;;;;;;;5.78;3.20;;;;;;;;;;2040584;29;20040;-90
2023/05/23 04:30:26;;;;;;;3.95;3.20;;;;;;;;;;2035307;29;20020;-88
2023/05/23 04:31:26;;;;;;;5.18;3.63;;;;;;;;;;2027498;29;20065;-89
2023/05/23 04:32:27;;;;;;;5.97;3.38;;;;;;;;;;2034966;29;20029;-89
2023/05/23 04:33:29;;;;;;;3.55;2.63;;;;;;;;;;2033113;29;20024;-89
2023/05/23 04:34:30;;;;;;;3.60;2.78;;;;;;;;;;2034267;29;20024;-87
2023/05/23 04:35:33;;;;;;;3.85;2.90;;;;;;;;;;2037354;29;20039;-88
2023/05/23 04:36:36;;;;;;;6.57;3.35;;;;;;;;;;2027789;29;20029;-88
2023/05/23 04:37:38;;;;;;;6.00;3.22;;;;;;;;;;2027146;29;20069;-87
2023/05/23 04:38:39;;;;;;;5.88;3.10;;;;;;;;;;2025220;29;20081;-89
2023/05/23 04:39:40;;;;;;;4.28;2.80;;;;;;;;;;2017512;29;20462;-89
2023/05/23 04:40:40;;;;;;;5.32;3.25;;;;;;;;;;2024916;29;20039;-89
2023/05/23 04:41:44;;;;;;;4.18;3.08;;;;;;;;;;2032899;29;20027;-89
2023/05/23 04:42:45;;;;;;;4.32;3.03;;;;;;;;;;2024464;29;20065;-88
2023/05/23 04:43:45;;;;;;;5.10;3.15;;;;;;;;;;2017090;29;20192;-88
2023/05/23 04:44:46;;;;;;;5.03;2.88;;;;;;;;;;2017242;29;20025;-88
2023/05/23 04:45:50;;;;;;;5.18;3.28;;;;;;;;;;2025073;29;20036;-88
2023/05/23 04:46:50;;;;;;;7.22;3.10;;;;;;;;;;2031628;29;20028;-89
2023/05/23 04:47:53;;;;;;;4.07;3.00;;;;;;;;;;2034694;29;20080;-89
2023/05/23 04:48:55;;;;;;;4.70;3.15;;;;;;;;;;2037785;29;20124;-90
2023/05/23 04:49:56;;;;;;;4.13;3.05;;;;;;;;;;2031184;29;20059;-89
2023/05/23 04:51:01;;;;;;;3.25;2.70;;;;;;;;;;2033004;29;20148;-89
2023/05/23 04:52:01;;;;;;;5.57;3.60;;;;;;;;;;2040650;29;20063;-89
2023/05/23 04:53:01;;;;;;;5.32;3.58;;;;;;;;;;2028058;29;20422;-89
2023/05/23 04:54:02;;;;;;;3.85;3.20;;;;;;;;;;2023940;29;20036;-89
2023/05/23 04:55:05;;;;;;;7.35;3.80;;;;;;;;;;2016109;29;20121;-89
2023/05/23 04:56:07;;;;;;;4.65;3.55;;;;;;;;;;2024504;29;20028;-88
2023/05/23 04:57:08;;;;;;;4.22;3.00;;;;;;;;;;2032465;29;20247;-88
2023/05/23 04:58:09;;;;;;;6.75;3.30;;;;;;;;;;2032056;29;20465;-88
2023/05/23 04:59:10;;;;;;;4.63;3.30;;;;;;;;;;2023255;29;20067;-89
2023/05/23 05:00:11;;;;;;;4.95;3.10;;;;;;;;;;2023366;29;20064;-89
2023/05/23 05:01:12;;;;;;;4.03;3.38;;;;;;;;;;2031900;29;20043;-89
2023/05/23 05:02:13;;;;;;;6.43;3.40;;;;;;;;;;2023090;29;20032;-90
2023/05/23 05:03:13;;;;;;;5.53;3.53;;;;;;;;;;2023586;29;20513;-90
2023/05/23 05:04:14;;;;;;;6.20;3.00;;;;;;;;;;2032253;29;20063;-88
2023/05/23 05:05:15;;;;;;;4.60;3.17;;;;;;;;;;2023672;29;20096;-90
2023/05/23 05:06:16;;;;;;;3.80;3.00;;;;;;;;;;2023760;29;20031;-90
2023/05/23 05:07:16;;;;;;;6.15;3.47;;;;;;;;;;2023942;29;20032;-89
2023/05/23 05:08:18;;;;;;;4.68;3.33;;;;;;;;;;2023969;29;20084;-90
2023/05/23 05:09:20;;;;;;;5.38;3.55;;;;;;;;;;2023703;29;20024;-90
2023/05/23 05:10:21;;;;;;;6.15;3.47;;;;;;;;;;2023718;29;20029;-89
2023/05/23 05:11:21;;;;;;;5.03;3.47;;;;;;;;;;2023648;29;20035;-89
2023/05/23 05:12:21;;;;;;;4.20;2.97;;;;;;;;;;2032023;29;20043;-89
2023/05/23 05:13:22;;;;;;;8.48;3.00;;;;;;;;;;2032176;29;20813;-89
2023/05/23 05:14:22;;;;;;;5.00;3.17;;;;;;;;;;2032391;29;20044;-89
2023/05/23 05:15:23;;;;;;;5.57;3.33;;;;;;;;;;2023780;29;20036;-89
2023/05/23 05:16:24;;;;;;;4.55;3.03;;;;;;;;;;2023663;29;20047;-88
2023/05/23 05:17:25;;;;;;;4.00;3.15;;;;;;;;;;2023599;29;20035;-88
2023/05/23 05:18:26;;;;;;;6.18;3.53;;;;;;;;;;2023842;29;20058;-88
2023/05/23 05:19:26;;;;;;;5.35;4.28;;;;;;;;;;2032170;29;20024;-88
2023/05/23 05:20:27;;;;;;;5.78;3.30;;;;;;;;;;2032240;29;20507;-89
2023/05/23 05:21:27;;;;;;;5.28;3.65;;;;;;;;;;2023669;29;20056;-89
2023/05/23 05:22:29;;;;;;;4.97;3.72;;;;;;;;;;2015883;29;20055;-88
2023/05/23 05:23:30;;;;;;;5.72;3.10;;;;;;;;;;2023995;29;20110;-88
2023/05/23 05:24:31;;;;;;;5.07;3.03;;;;;;;;;;2032213;29;20148;-89
2023/05/23 05:25:34;;;;;;;4.90;3.30;;;;;;;;;;2023588;29;20509;-89
2023/05/23 05:26:35;;;;;;;4.13;3.35;;;;;;;;;;2024124;29;20111;-89
2023/05/23 05:27:39;;;;;;;5.78;3.33;;;;;;;;;;2023709;29;20119;-88
2023/05/23 05:28:45;;;;;;;5.75;3.72;;;;;;;;;;1886018;29;10002002;-89
2023/05/23 05:29:47;;;;;;;3.85;3.20;;;;;;;;;;2025896;29;20270;-88
2023/05/23 05:30:52;;;;;;;5.85;4.00;;;;;;;;;;2031695;29;20404;-88
2023/05/23 05:31:53;;;;;;;4.63;3.58;;;;;;;;;;2023547;29;20028;-89
2023/05/23 05:32:53;;;;;;;4.28;3.25;;;;;;;;;;2023634;29;20073;-87
2023/05/23 05:33:54;;;;;;;7.45;3.50;;;;;;;;;;2032027;29;20056;-88
2023/05/23 05:34:54;;;;;;;4.80;3.40;;;;;;;;;;2023566;29;20123;-88
2023/05/23 05:35:55;;;;;;;5.22;3.53;;;;;;;;;;2023335;29;20068;-88
2023/05/23 05:37:01;;;;;;;5.28;3.70;;;;;;;;;;2023585;29;20064;-87
2023/05/23 05:38:03;;;;;;;4.25;3.45;;;;;;;;;;2016782;29;20061;-88
2023/05/23 05:39:05;;;;;;;7.82;4.03;;;;;;;;;;2023579;29;20111;-87
2023/05/23 05:40:07;;;;;;;4.97;3.42;;;;;;;;;;2023719;29;20167;-87
2023/05/23 05:41:07;;;;;;;5.32;3.33;;;;;;;;;;2026189;29;20074;-89
2023/05/23 05:42:08;;;;;;;6.53;3.85;;;;;;;;;;2027675;29;20434;-89
2023/05/23 05:43:09;;;;;;;6.60;3.95;;;;;;;;;;2027020;29;20028;-87
2023/05/23 05:44:09;;;;;;;5.15;3.63;;;;;;;;;;2034211;29;20028;-86
2023/05/23 05:45:10;;;;;;;;;;;;;;;;;;1678590;29;10263029;-86
2023/05/23 05:46:10;;;;;;;5.03;3.03;;;;;;;;;;2027879;29;20528;-89
2023/05/23 05:47:12;;;;;;;5.18;3.10;;;;;;;;;;2030138;29;20066;-88
2023/05/23 05:48:12;;;;;;;5.25;3.53;;;;;;;;;;2035689;29;20091;-89
2023/05/23 05:49:12;;;;;;;4.45;3.25;;;;;;;;;;2035192;29;20401;-89
2023/05/23 05:50:13;;;;;;;4.03;3.30;;;;;;;;;;2036113;29;20062;-90
2023/05/23 05:51:20;;;;;;;4.90;3.70;;;;;;;;;;2023497;29;20028;-91
2023/05/23 05:52:23;;;;;;;5.88;3.38;;;;;;;;;;2023282;29;20047;-88
2023/05/23 05:53:31;;;;;;;6.47;3.63;;;;;;;;;;2015906;29;20033;-89
2023/05/23 05:54:35;;;;;;;6.45;3.40;;;;;;;;;;2022714;29;20081;-89
2023/05/23 05:55:45;;;;;;;5.47;3.03;;;;;;;;;;2022777;29;20040;-89
2023/05/23 05:56:46;;;;;;;4.85;3.30;;;;;;;;;;2023240;29;20126;-87
2023/05/23 05:57:46;;;;;;;5.90;3.35;;;;;;;;;;2024982;29;20484;-89
2023/05/23 05:58:47;;;;;;;4.80;2.90;;;;;;;;;;2022077;29;20136;-88
2023/05/23 05:59:47;;;;;;;3.80;3.13;;;;;;;;;;2022018;29;20048;-89
2023/05/23 06:00:48;;;;;;;6.05;3.20;;;;;;;;;;2020881;29;20032;-89
2023/05/23 06:01:52;;;;;;;3.22;2.50;;;;;;;;;;2016281;29;20165;-89
2023/05/23 06:02:56;;;;;;;5.45;2.95;;;;;;;;;;2020578;29;20267;-88
2023/05/23 06:03:57;;;;;;;3.10;2.70;;;;;;;;;;2025445;29;20063;-89
2023/05/23 06:04:58;;;;;;;5.80;2.92;;;;;;;;;;2025820;29;20039;-90
2023/05/23 06:05:59;;;;;;;9.00;3.15;;;;;;;;;;2025749;29;20040;-90
2023/05/23 06:07:00;;;;;;;5.25;2.50;;;;;;;;;;2024732;29;20540;-90
2023/05/23 06:08:00;;;;;;;5.05;2.63;;;;;;;;;;2023447;29;20551;-89
2023/05/23 06:09:01;;;;;;;3.83;2.97;;;;;;;;;;2015456;29;20270;-87
2023/05/23 06:10:03;;;;;;;3.50;2.65;;;;;;;;;;2015658;29;20154;-89
2023/05/23 06:11:04;;;;;;;5.13;3.60;;;;;;;;;;2015217;29;20120;-88